Hernandez, New Mexico
Current Conditions -  °F | °C
As of 11:55 AM on Saturday 25 Oct 2014 (Local Time) from KLAM Reporting Station
Clear Clear  
Wind Chill: 64°   Ceiling: Unl
Heat Index: 64°   Visibility: 10mi
Dew Point: 26°   Wind: 6mph
Humidity: 23%   Direction: 140°SE
Pressure: 30.4"   Gusts: NA
Location:  36.06°N, 106.12°W
Report Text: KLAM 251755Z AUTO 14005KT 10SM CLR 18/M03 A3040 RMK AO2 T01801035 10180 20075
Loading
Personal Weather Stations






























Interactive Weather Map
Tropical Storm Tracking
New forecast layout! Learn more

10-Day Weather Forecast

Advertisements
Track Severe Weather on mobile